sensor_id;sensor_type;location;lat;lon;timestamp;P1;durP1;ratioP1;P2;durP2;ratioP2
45466;SDS011;31212;49.734;8.490;2023-05-21T00:01:31;15.02;;;8.90;;
45466;SDS011;31212;49.734;8.490;2023-05-21T00:03:58;16.40;;;8.65;;
45466;SDS011;31212;49.734;8.490;2023-05-21T00:06:26;15.73;;;8.85;;
45466;SDS011;31212;49.734;8.490;2023-05-21T00:08:53;18.00;;;8.25;;
45466;SDS011;31212;49.734;8.490;2023-05-21T00:11:19;18.00;;;8.90;;
45466;SDS011;31212;49.734;8.490;2023-05-21T00:13:46;18.20;;;8.95;;
45466;SDS011;31212;49.734;8.490;2023-05-21T00:16:13;18.00;;;9.25;;
45466;SDS011;31212;49.734;8.490;2023-05-21T00:18:39;18.23;;;7.85;;
45466;SDS011;31212;49.734;8.490;2023-05-21T00:21:06;14.30;;;7.97;;
45466;SDS011;31212;49.734;8.490;2023-05-21T00:23:34;18.67;;;8.60;;
45466;SDS011;31212;49.734;8.490;2023-05-21T00:26:01;19.10;;;9.43;;
45466;SDS011;31212;49.734;8.490;2023-05-21T00:28:28;17.88;;;8.45;;
45466;SDS011;31212;49.734;8.490;2023-05-21T00:30:54;18.90;;;8.60;;
45466;SDS011;31212;49.734;8.490;2023-05-21T00:33:21;14.80;;;8.35;;
45466;SDS011;31212;49.734;8.490;2023-05-21T00:35:50;18.25;;;7.60;;
45466;SDS011;31212;49.734;8.490;2023-05-21T00:38:17;17.20;;;8.95;;
45466;SDS011;31212;49.734;8.490;2023-05-21T00:40:45;14.93;;;7.53;;
45466;SDS011;31212;49.734;8.490;2023-05-21T00:43:11;15.55;;;8.63;;
45466;SDS011;31212;49.734;8.490;2023-05-21T00:45:39;16.23;;;8.93;;
45466;SDS011;31212;49.734;8.490;2023-05-21T00:48:08;20.75;;;9.15;;
45466;SDS011;31212;49.734;8.490;2023-05-21T00:50:35;16.92;;;8.73;;
45466;SDS011;31212;49.734;8.490;2023-05-21T00:53:04;21.23;;;9.25;;
45466;SDS011;31212;49.734;8.490;2023-05-21T00:55:34;19.65;;;9.15;;
45466;SDS011;31212;49.734;8.490;2023-05-21T00:58:02;17.50;;;7.78;;
45466;SDS011;31212;49.734;8.490;2023-05-21T01:00:29;14.63;;;8.70;;
45466;SDS011;31212;49.734;8.490;2023-05-21T01:02:57;19.55;;;8.65;;
45466;SDS011;31212;49.734;8.490;2023-05-21T01:05:23;19.38;;;9.30;;
45466;SDS011;31212;49.734;8.490;2023-05-21T01:07:50;16.48;;;9.23;;
45466;SDS011;31212;49.734;8.490;2023-05-21T01:10:17;16.95;;;8.20;;
45466;SDS011;31212;49.734;8.490;2023-05-21T01:12:44;18.95;;;8.90;;
45466;SDS011;31212;49.734;8.490;2023-05-21T01:15:12;17.00;;;7.65;;
45466;SDS011;31212;49.734;8.490;2023-05-21T01:17:39;17.35;;;8.68;;
45466;SDS011;31212;49.734;8.490;2023-05-21T01:20:07;17.92;;;9.32;;
45466;SDS011;31212;49.734;8.490;2023-05-21T01:22:35;17.55;;;9.15;;
45466;SDS011;31212;49.734;8.490;2023-05-21T01:25:09;16.42;;;10.25;;
45466;SDS011;31212;49.734;8.490;2023-05-21T01:27:35;17.25;;;8.85;;
45466;SDS011;31212;49.734;8.490;2023-05-21T01:30:02;17.85;;;8.73;;
45466;SDS011;31212;49.734;8.490;2023-05-21T01:32:33;16.23;;;8.57;;
45466;SDS011;31212;49.734;8.490;2023-05-21T01:35:08;15.80;;;8.55;;
45466;SDS011;31212;49.734;8.490;2023-05-21T01:37:36;18.50;;;9.25;;
45466;SDS011;31212;49.734;8.490;2023-05-21T01:40:12;18.02;;;8.38;;
45466;SDS011;31212;49.734;8.490;2023-05-21T01:42:41;17.77;;;8.93;;
45466;SDS011;31212;49.734;8.490;2023-05-21T01:45:09;18.70;;;8.90;;
45466;SDS011;31212;49.734;8.490;2023-05-21T01:47:37;15.13;;;9.88;;
45466;SDS011;31212;49.734;8.490;2023-05-21T01:50:06;21.23;;;9.50;;
45466;SDS011;31212;49.734;8.490;2023-05-21T01:52:34;17.08;;;9.27;;
45466;SDS011;31212;49.734;8.490;2023-05-21T01:55:01;18.33;;;8.55;;
45466;SDS011;31212;49.734;8.490;2023-05-21T01:57:29;14.45;;;7.88;;
45466;SDS011;31212;49.734;8.490;2023-05-21T01:59:56;15.77;;;8.63;;
45466;SDS011;31212;49.734;8.490;2023-05-21T02:02:24;15.13;;;9.23;;
45466;SDS011;31212;49.734;8.490;2023-05-21T02:04:50;14.73;;;7.93;;
45466;SDS011;31212;49.734;8.490;2023-05-21T02:07:17;18.17;;;8.40;;
45466;SDS011;31212;49.734;8.490;2023-05-21T02:09:44;18.38;;;9.38;;
45466;SDS011;31212;49.734;8.490;2023-05-21T02:12:10;17.20;;;8.15;;
45466;SDS011;31212;49.734;8.490;2023-05-21T02:14:38;17.08;;;8.85;;
45466;SDS011;31212;49.734;8.490;2023-05-21T02:17:04;15.77;;;8.73;;
45466;SDS011;31212;49.734;8.490;2023-05-21T02:19:32;17.23;;;7.53;;
45466;SDS011;31212;49.734;8.490;2023-05-21T02:21:58;19.23;;;7.93;;
45466;SDS011;31212;49.734;8.490;2023-05-21T02:24:25;14.30;;;8.68;;
45466;SDS011;31212;49.734;8.490;2023-05-21T02:26:52;14.73;;;8.57;;
45466;SDS011;31212;49.734;8.490;2023-05-21T02:29:19;18.63;;;9.32;;
45466;SDS011;31212;49.734;8.490;2023-05-21T02:31:46;19.75;;;10.35;;
45466;SDS011;31212;49.734;8.490;2023-05-21T02:34:15;20.90;;;10.18;;
45466;SDS011;31212;49.734;8.490;2023-05-21T02:36:41;16.92;;;7.78;;
45466;SDS011;31212;49.734;8.490;2023-05-21T02:39:08;18.35;;;8.55;;
45466;SDS011;31212;49.734;8.490;2023-05-21T02:41:34;23.35;;;8.48;;
45466;SDS011;31212;49.734;8.490;2023-05-21T02:44:02;17.25;;;8.52;;
45466;SDS011;31212;49.734;8.490;2023-05-21T02:46:29;15.55;;;7.78;;
45466;SDS011;31212;49.734;8.490;2023-05-21T02:48:57;14.68;;;7.15;;
45466;SDS011;31212;49.734;8.490;2023-05-21T02:51:24;13.45;;;7.10;;
45466;SDS011;31212;49.734;8.490;2023-05-21T02:53:51;15.18;;;8.93;;
45466;SDS011;31212;49.734;8.490;2023-05-21T02:56:17;14.70;;;8.05;;
45466;SDS011;31212;49.734;8.490;2023-05-21T02:58:44;15.60;;;9.02;;
45466;SDS011;31212;49.734;8.490;2023-05-21T03:01:11;17.92;;;9.48;;
45466;SDS011;31212;49.734;8.490;2023-05-21T03:03:37;15.52;;;8.48;;
45466;SDS011;31212;49.734;8.490;2023-05-21T03:06:06;16.85;;;7.60;;
45466;SDS011;31212;49.734;8.490;2023-05-21T03:08:34;20.60;;;7.85;;
45466;SDS011;31212;49.734;8.490;2023-05-21T03:11:01;15.40;;;8.80;;
45466;SDS011;31212;49.734;8.490;2023-05-21T03:13:28;20.05;;;9.35;;
45466;SDS011;31212;49.734;8.490;2023-05-21T03:15:55;16.10;;;8.18;;
45466;SDS011;31212;49.734;8.490;2023-05-21T03:18:22;15.77;;;7.60;;
45466;SDS011;31212;49.734;8.490;2023-05-21T03:20:49;16.33;;;9.48;;
45466;SDS011;31212;49.734;8.490;2023-05-21T03:23:17;13.93;;;8.27;;
45466;SDS011;31212;49.734;8.490;2023-05-21T03:25:43;21.45;;;8.77;;
45466;SDS011;31212;49.734;8.490;2023-05-21T03:28:11;13.82;;;8.32;;
45466;SDS011;31212;49.734;8.490;2023-05-21T03:30:42;16.55;;;8.48;;
45466;SDS011;31212;49.734;8.490;2023-05-21T03:33:34;16.45;;;9.45;;
45466;SDS011;31212;49.734;8.490;2023-05-21T03:36:20;14.98;;;8.10;;
45466;SDS011;31212;49.734;8.490;2023-05-21T03:38:48;16.05;;;8.70;;
45466;SDS011;31212;49.734;8.490;2023-05-21T03:41:15;12.70;;;7.38;;
45466;SDS011;31212;49.734;8.490;2023-05-21T03:43:45;23.48;;;8.23;;
45466;SDS011;31212;49.734;8.490;2023-05-21T03:46:13;17.58;;;8.65;;
45466;SDS011;31212;49.734;8.490;2023-05-21T03:48:54;18.25;;;8.80;;
45466;SDS011;31212;49.734;8.490;2023-05-21T03:51:23;14.80;;;7.53;;
45466;SDS011;31212;49.734;8.490;2023-05-21T03:53:51;19.85;;;8.43;;
45466;SDS011;31212;49.734;8.490;2023-05-21T03:56:18;18.13;;;9.10;;
45466;SDS011;31212;49.734;8.490;2023-05-21T03:58:46;14.93;;;8.07;;
45466;SDS011;31212;49.734;8.490;2023-05-21T04:01:12;19.38;;;9.10;;
45466;SDS011;31212;49.734;8.490;2023-05-21T04:03:39;18.48;;;8.07;;
45466;SDS011;31212;49.734;8.490;2023-05-21T04:06:07;14.60;;;7.65;;
45466;SDS011;31212;49.734;8.490;2023-05-21T04:08:34;14.15;;;8.05;;
45466;SDS011;31212;49.734;8.490;2023-05-21T04:11:03;15.05;;;7.82;;
45466;SDS011;31212;49.734;8.490;2023-05-21T04:13:30;15.95;;;7.75;;
45466;SDS011;31212;49.734;8.490;2023-05-21T04:15:56;17.65;;;9.95;;
45466;SDS011;31212;49.734;8.490;2023-05-21T04:18:24;17.70;;;7.82;;
45466;SDS011;31212;49.734;8.490;2023-05-21T04:20:51;17.38;;;8.32;;
45466;SDS011;31212;49.734;8.490;2023-05-21T04:23:21;18.92;;;9.10;;
45466;SDS011;31212;49.734;8.490;2023-05-21T04:25:49;15.52;;;8.32;;
45466;SDS011;31212;49.734;8.490;2023-05-21T04:28:17;17.15;;;8.63;;
45466;SDS011;31212;49.734;8.490;2023-05-21T04:30:46;17.65;;;8.65;;
45466;SDS011;31212;49.734;8.490;2023-05-21T04:33:14;21.92;;;8.50;;
45466;SDS011;31212;49.734;8.490;2023-05-21T04:35:42;17.27;;;8.48;;
45466;SDS011;31212;49.734;8.490;2023-05-21T04:38:09;18.52;;;8.68;;
45466;SDS011;31212;49.734;8.490;2023-05-21T04:40:36;17.50;;;7.95;;
45466;SDS011;31212;49.734;8.490;2023-05-21T04:43:04;16.63;;;9.32;;
45466;SDS011;31212;49.734;8.490;2023-05-21T04:45:33;20.05;;;8.05;;
45466;SDS011;31212;49.734;8.490;2023-05-21T04:48:00;18.40;;;8.30;;
45466;SDS011;31212;49.734;8.490;2023-05-21T04:50:28;16.33;;;7.82;;
45466;SDS011;31212;49.734;8.490;2023-05-21T04:52:55;16.85;;;8.50;;
45466;SDS011;31212;49.734;8.490;2023-05-21T04:55:22;21.65;;;8.43;;
45466;SDS011;31212;49.734;8.490;2023-05-21T04:57:50;16.90;;;9.00;;
45466;SDS011;31212;49.734;8.490;2023-05-21T05:00:17;15.57;;;8.23;;
45466;SDS011;31212;49.734;8.490;2023-05-21T05:02:46;18.60;;;9.05;;
45466;SDS011;31212;49.734;8.490;2023-05-21T05:05:13;19.48;;;8.43;;
45466;SDS011;31212;49.734;8.490;2023-05-21T05:07:40;15.80;;;7.68;;
45466;SDS011;31212;49.734;8.490;2023-05-21T05:10:07;15.40;;;8.00;;
45466;SDS011;31212;49.734;8.490;2023-05-21T05:12:33;15.73;;;8.05;;
45466;SDS011;31212;49.734;8.490;2023-05-21T05:15:00;13.13;;;7.50;;
45466;SDS011;31212;49.734;8.490;2023-05-21T05:17:27;17.73;;;8.90;;
45466;SDS011;31212;49.734;8.490;2023-05-21T05:19:55;18.20;;;9.35;;
45466;SDS011;31212;49.734;8.490;2023-05-21T05:22:21;17.73;;;9.00;;
45466;SDS011;31212;49.734;8.490;2023-05-21T05:24:48;17.98;;;7.68;;
45466;SDS011;31212;49.734;8.490;2023-05-21T05:27:15;18.10;;;8.80;;
45466;SDS011;31212;49.734;8.490;2023-05-21T05:29:42;17.13;;;8.35;;
45466;SDS011;31212;49.734;8.490;2023-05-21T05:32:09;15.32;;;7.78;;
45466;SDS011;31212;49.734;8.490;2023-05-21T05:34:35;13.23;;;7.78;;
45466;SDS011;31212;49.734;8.490;2023-05-21T05:37:05;16.70;;;8.27;;
45466;SDS011;31212;49.734;8.490;2023-05-21T05:39:32;20.13;;;9.57;;
45466;SDS011;31212;49.734;8.490;2023-05-21T05:41:59;14.35;;;7.82;;
45466;SDS011;31212;49.734;8.490;2023-05-21T05:44:25;13.50;;;6.38;;
45466;SDS011;31212;49.734;8.490;2023-05-21T05:46:52;12.15;;;7.18;;
45466;SDS011;31212;49.734;8.490;2023-05-21T05:49:18;15.75;;;8.05;;
45466;SDS011;31212;49.734;8.490;2023-05-21T05:51:45;16.35;;;7.75;;
45466;SDS011;31212;49.734;8.490;2023-05-21T05:54:13;16.17;;;8.10;;
45466;SDS011;31212;49.734;8.490;2023-05-21T05:56:40;13.90;;;8.07;;
45466;SDS011;31212;49.734;8.490;2023-05-21T05:59:07;16.08;;;7.45;;
45466;SDS011;31212;49.734;8.490;2023-05-21T06:01:36;19.48;;;8.52;;
45466;SDS011;31212;49.734;8.490;2023-05-21T06:04:02;17.48;;;9.05;;
45466;SDS011;31212;49.734;8.490;2023-05-21T06:06:29;17.92;;;8.82;;
45466;SDS011;31212;49.734;8.490;2023-05-21T06:08:56;18.52;;;9.63;;
45466;SDS011;31212;49.734;8.490;2023-05-21T06:11:25;17.70;;;7.93;;
45466;SDS011;31212;49.734;8.490;2023-05-21T06:13:51;12.73;;;8.13;;
45466;SDS011;31212;49.734;8.490;2023-05-21T06:16:18;18.20;;;9.05;;
45466;SDS011;31212;49.734;8.490;2023-05-21T06:18:45;14.82;;;8.82;;
45466;SDS011;31212;49.734;8.490;2023-05-21T06:21:11;14.32;;;8.15;;
45466;SDS011;31212;49.734;8.490;2023-05-21T06:23:38;14.95;;;7.40;;
45466;SDS011;31212;49.734;8.490;2023-05-21T06:26:06;14.05;;;7.93;;
45466;SDS011;31212;49.734;8.490;2023-05-21T06:28:34;17.02;;;8.43;;
45466;SDS011;31212;49.734;8.490;2023-05-21T06:31:02;16.35;;;7.93;;
45466;SDS011;31212;49.734;8.490;2023-05-21T06:33:30;15.65;;;8.20;;
45466;SDS011;31212;49.734;8.490;2023-05-21T06:35:57;15.07;;;7.88;;
45466;SDS011;31212;49.734;8.490;2023-05-21T06:38:24;13.27;;;8.13;;
45466;SDS011;31212;49.734;8.490;2023-05-21T06:40:50;13.77;;;8.57;;
45466;SDS011;31212;49.734;8.490;2023-05-21T06:43:39;17.92;;;8.52;;
45466;SDS011;31212;49.734;8.490;2023-05-21T06:46:31;15.05;;;8.13;;
45466;SDS011;31212;49.734;8.490;2023-05-21T06:48:59;13.57;;;7.70;;
45466;SDS011;31212;49.734;8.490;2023-05-21T06:51:26;11.93;;;6.85;;
45466;SDS011;31212;49.734;8.490;2023-05-21T06:53:53;14.32;;;7.13;;
45466;SDS011;31212;49.734;8.490;2023-05-21T06:56:20;12.43;;;7.88;;
45466;SDS011;31212;49.734;8.490;2023-05-21T06:58:48;21.05;;;7.85;;
45466;SDS011;31212;49.734;8.490;2023-05-21T07:01:15;10.90;;;6.85;;
45466;SDS011;31212;49.734;8.490;2023-05-21T07:03:41;13.65;;;7.18;;
45466;SDS011;31212;49.734;8.490;2023-05-21T07:06:08;10.60;;;6.85;;
45466;SDS011;31212;49.734;8.490;2023-05-21T07:08:35;10.80;;;7.35;;
45466;SDS011;31212;49.734;8.490;2023-05-21T07:11:02;13.63;;;5.93;;
45466;SDS011;31212;49.734;8.490;2023-05-21T07:13:29;9.93;;;6.47;;
45466;SDS011;31212;49.734;8.490;2023-05-21T07:15:57;13.23;;;6.38;;
45466;SDS011;31212;49.734;8.490;2023-05-21T07:18:24;11.27;;;6.57;;
45466;SDS011;31212;49.734;8.490;2023-05-21T07:20:51;11.02;;;7.40;;
45466;SDS011;31212;49.734;8.490;2023-05-21T07:23:18;11.05;;;5.97;;
45466;SDS011;31212;49.734;8.490;2023-05-21T07:25:45;11.73;;;6.43;;
45466;SDS011;31212;49.734;8.490;2023-05-21T07:28:12;10.48;;;6.05;;
45466;SDS011;31212;49.734;8.490;2023-05-21T07:30:39;11.30;;;7.20;;
45466;SDS011;31212;49.734;8.490;2023-05-21T07:33:11;7.97;;;5.25;;
45466;SDS011;31212;49.734;8.490;2023-05-21T07:35:38;10.65;;;6.10;;
45466;SDS011;31212;49.734;8.490;2023-05-21T07:38:06;12.40;;;5.97;;
45466;SDS011;31212;49.734;8.490;2023-05-21T07:40:32;10.80;;;6.65;;
45466;SDS011;31212;49.734;8.490;2023-05-21T07:43:00;11.15;;;6.30;;
45466;SDS011;31212;49.734;8.490;2023-05-21T07:45:28;11.38;;;6.60;;
45466;SDS011;31212;49.734;8.490;2023-05-21T07:47:55;13.48;;;6.15;;
45466;SDS011;31212;49.734;8.490;2023-05-21T07:50:26;13.23;;;5.72;;
45466;SDS011;31212;49.734;8.490;2023-05-21T07:52:53;10.43;;;6.40;;
45466;SDS011;31212;49.734;8.490;2023-05-21T07:55:19;11.05;;;6.38;;
45466;SDS011;31212;49.734;8.490;2023-05-21T07:57:46;8.57;;;5.75;;
45466;SDS011;31212;49.734;8.490;2023-05-21T08:00:15;9.88;;;6.75;;
45466;SDS011;31212;49.734;8.490;2023-05-21T08:02:49;9.15;;;6.13;;
45466;SDS011;31212;49.734;8.490;2023-05-21T08:05:16;10.15;;;6.82;;
45466;SDS011;31212;49.734;8.490;2023-05-21T08:07:45;11.77;;;6.88;;
45466;SDS011;31212;49.734;8.490;2023-05-21T08:10:13;9.23;;;6.25;;
45466;SDS011;31212;49.734;8.490;2023-05-21T08:12:39;12.07;;;6.47;;
45466;SDS011;31212;49.734;8.490;2023-05-21T08:15:07;9.45;;;5.68;;
45466;SDS011;31212;49.734;8.490;2023-05-21T08:17:39;8.20;;;5.93;;
45466;SDS011;31212;49.734;8.490;2023-05-21T08:20:06;12.93;;;6.30;;
45466;SDS011;31212;49.734;8.490;2023-05-21T08:22:36;8.02;;;5.55;;
45466;SDS011;31212;49.734;8.490;2023-05-21T08:25:05;7.80;;;4.97;;
45466;SDS011;31212;49.734;8.490;2023-05-21T08:27:32;10.35;;;6.38;;
45466;SDS011;31212;49.734;8.490;2023-05-21T08:29:59;8.98;;;6.00;;
45466;SDS011;31212;49.734;8.490;2023-05-21T08:32:26;9.48;;;6.18;;
45466;SDS011;31212;49.734;8.490;2023-05-21T08:34:53;8.95;;;5.93;;
45466;SDS011;31212;49.734;8.490;2023-05-21T08:37:51;8.50;;;6.05;;
45466;SDS011;31212;49.734;8.490;2023-05-21T08:40:28;10.05;;;5.72;;
45466;SDS011;31212;49.734;8.490;2023-05-21T08:42:55;9.88;;;5.72;;
45466;SDS011;31212;49.734;8.490;2023-05-21T08:45:35;9.93;;;6.43;;
45466;SDS011;31212;49.734;8.490;2023-05-21T08:48:06;11.32;;;6.30;;
45466;SDS011;31212;49.734;8.490;2023-05-21T08:50:35;8.90;;;6.05;;
45466;SDS011;31212;49.734;8.490;2023-05-21T08:53:09;8.07;;;5.55;;
45466;SDS011;31212;49.734;8.490;2023-05-21T08:55:37;9.45;;;5.85;;
45466;SDS011;31212;49.734;8.490;2023-05-21T08:58:06;6.90;;;4.55;;
45466;SDS011;31212;49.734;8.490;2023-05-21T09:00:34;8.52;;;5.75;;
45466;SDS011;31212;49.734;8.490;2023-05-21T09:03:02;10.18;;;6.72;;
45466;SDS011;31212;49.734;8.490;2023-05-21T09:05:32;9.77;;;6.17;;
45466;SDS011;31212;49.734;8.490;2023-05-21T09:08:02;8.85;;;6.32;;
45466;SDS011;31212;49.734;8.490;2023-05-21T09:10:57;9.85;;;5.40;;
45466;SDS011;31212;49.734;8.490;2023-05-21T09:13:29;9.68;;;5.07;;
45466;SDS011;31212;49.734;8.490;2023-05-21T09:15:58;8.15;;;5.88;;
45466;SDS011;31212;49.734;8.490;2023-05-21T09:18:26;7.05;;;5.22;;
45466;SDS011;31212;49.734;8.490;2023-05-21T09:21:21;7.90;;;5.63;;
45466;SDS011;31212;49.734;8.490;2023-05-21T09:23:51;8.07;;;6.20;;
45466;SDS011;31212;49.734;8.490;2023-05-21T09:26:21;9.00;;;5.50;;
45466;SDS011;31212;49.734;8.490;2023-05-21T09:28:51;9.82;;;4.90;;
45466;SDS011;31212;49.734;8.490;2023-05-21T09:31:21;8.32;;;5.45;;
45466;SDS011;31212;49.734;8.490;2023-05-21T09:33:49;10.35;;;5.25;;
45466;SDS011;31212;49.734;8.490;2023-05-21T09:36:18;13.38;;;5.57;;
45466;SDS011;31212;49.734;8.490;2023-05-21T09:38:46;7.72;;;5.38;;
45466;SDS011;31212;49.734;8.490;2023-05-21T09:41:13;8.95;;;6.32;;
45466;SDS011;31212;49.734;8.490;2023-05-21T09:43:41;10.20;;;5.00;;
45466;SDS011;31212;49.734;8.490;2023-05-21T09:46:09;9.00;;;5.03;;
45466;SDS011;31212;49.734;8.490;2023-05-21T09:48:36;9.98;;;6.47;;
45466;SDS011;31212;49.734;8.490;2023-05-21T09:51:07;7.38;;;5.20;;
45466;SDS011;31212;49.734;8.490;2023-05-21T09:53:35;7.15;;;5.13;;
45466;SDS011;31212;49.734;8.490;2023-05-21T09:56:02;8.13;;;5.68;;
45466;SDS011;31212;49.734;8.490;2023-05-21T09:58:29;8.00;;;5.25;;
45466;SDS011;31212;49.734;8.490;2023-05-21T10:00:57;10.65;;;6.05;;
45466;SDS011;31212;49.734;8.490;2023-05-21T10:03:24;9.75;;;4.95;;
45466;SDS011;31212;49.734;8.490;2023-05-21T10:05:53;9.00;;;5.68;;
45466;SDS011;31212;49.734;8.490;2023-05-21T10:08:20;7.95;;;5.05;;
45466;SDS011;31212;49.734;8.490;2023-05-21T10:13:22;8.38;;;4.95;;
45466;SDS011;31212;49.734;8.490;2023-05-21T10:15:52;10.77;;;4.63;;
45466;SDS011;31212;49.734;8.490;2023-05-21T10:18:25;8.75;;;5.47;;
45466;SDS011;31212;49.734;8.490;2023-05-21T10:20:53;6.53;;;4.85;;
45466;SDS011;31212;49.734;8.490;2023-05-21T10:23:21;7.30;;;4.90;;
45466;SDS011;31212;49.734;8.490;2023-05-21T10:25:48;7.63;;;5.00;;
45466;SDS011;31212;49.734;8.490;2023-05-21T10:28:17;8.05;;;5.20;;
45466;SDS011;31212;49.734;8.490;2023-05-21T10:30:45;9.63;;;4.55;;
45466;SDS011;31212;49.734;8.490;2023-05-21T10:33:12;9.63;;;5.28;;
45466;SDS011;31212;49.734;8.490;2023-05-21T10:35:42;12.90;;;4.55;;
45466;SDS011;31212;49.734;8.490;2023-05-21T10:38:11;8.43;;;4.90;;
45466;SDS011;31212;49.734;8.490;2023-05-21T10:40:39;6.53;;;4.20;;
45466;SDS011;31212;49.734;8.490;2023-05-21T10:43:10;8.88;;;4.75;;
45466;SDS011;31212;49.734;8.490;2023-05-21T10:46:00;5.78;;;4.03;;
45466;SDS011;31212;49.734;8.490;2023-05-21T10:48:46;6.38;;;4.22;;
45466;SDS011;31212;49.734;8.490;2023-05-21T10:51:24;5.95;;;4.68;;
45466;SDS011;31212;49.734;8.490;2023-05-21T10:56:43;9.48;;;4.70;;
45466;SDS011;31212;49.734;8.490;2023-05-21T10:59:19;7.43;;;4.80;;
45466;SDS011;31212;49.734;8.490;2023-05-21T11:01:58;8.02;;;4.97;;
45466;SDS011;31212;49.734;8.490;2023-05-21T11:04:28;8.10;;;5.38;;
45466;SDS011;31212;49.734;8.490;2023-05-21T11:06:56;8.15;;;5.90;;
45466;SDS011;31212;49.734;8.490;2023-05-21T11:09:23;9.60;;;5.22;;
45466;SDS011;31212;49.734;8.490;2023-05-21T11:11:51;9.40;;;4.65;;
45466;SDS011;31212;49.734;8.490;2023-05-21T11:14:28;7.03;;;4.63;;
45466;SDS011;31212;49.734;8.490;2023-05-21T11:16:57;8.00;;;5.43;;
45466;SDS011;31212;49.734;8.490;2023-05-21T11:19:31;6.18;;;4.35;;
45466;SDS011;31212;49.734;8.490;2023-05-21T11:22:02;7.40;;;5.00;;
45466;SDS011;31212;49.734;8.490;2023-05-21T11:24:31;9.73;;;4.75;;
45466;SDS011;31212;49.734;8.490;2023-05-21T11:26:59;6.25;;;5.10;;
45466;SDS011;31212;49.734;8.490;2023-05-21T11:29:31;7.00;;;4.97;;
45466;SDS011;31212;49.734;8.490;2023-05-21T11:32:05;7.90;;;5.20;;
45466;SDS011;31212;49.734;8.490;2023-05-21T11:34:36;7.25;;;4.60;;
45466;SDS011;31212;49.734;8.490;2023-05-21T11:40:15;7.35;;;5.22;;
45466;SDS011;31212;49.734;8.490;2023-05-21T11:42:42;6.13;;;4.75;;
45466;SDS011;31212;49.734;8.490;2023-05-21T11:47:44;10.07;;;4.72;;
45466;SDS011;31212;49.734;8.490;2023-05-21T11:50:11;5.88;;;4.53;;
45466;SDS011;31212;49.734;8.490;2023-05-21T11:52:41;6.97;;;5.18;;
45466;SDS011;31212;49.734;8.490;2023-05-21T11:55:08;7.30;;;5.00;;
45466;SDS011;31212;49.734;8.490;2023-05-21T11:57:36;7.47;;;5.07;;
45466;SDS011;31212;49.734;8.490;2023-05-21T12:00:12;6.78;;;4.75;;
45466;SDS011;31212;49.734;8.490;2023-05-21T12:02:45;11.57;;;5.25;;
45466;SDS011;31212;49.734;8.490;2023-05-21T12:05:12;9.52;;;5.93;;
45466;SDS011;31212;49.734;8.490;2023-05-21T12:07:41;7.43;;;5.30;;
45466;SDS011;31212;49.734;8.490;2023-05-21T12:10:08;7.00;;;4.82;;
45466;SDS011;31212;49.734;8.490;2023-05-21T12:12:35;10.80;;;5.20;;
45466;SDS011;31212;49.734;8.490;2023-05-21T12:15:02;7.05;;;5.65;;
45466;SDS011;31212;49.734;8.490;2023-05-21T12:17:29;8.20;;;4.82;;
45466;SDS011;31212;49.734;8.490;2023-05-21T12:19:57;8.35;;;4.75;;
45466;SDS011;31212;49.734;8.490;2023-05-21T12:22:25;6.57;;;4.45;;
45466;SDS011;31212;49.734;8.490;2023-05-21T12:24:55;5.55;;;4.38;;
45466;SDS011;31212;49.734;8.490;2023-05-21T12:27:25;7.35;;;4.20;;
45466;SDS011;31212;49.734;8.490;2023-05-21T12:29:52;6.15;;;4.38;;
45466;SDS011;31212;49.734;8.490;2023-05-21T12:32:20;7.45;;;5.07;;
45466;SDS011;31212;49.734;8.490;2023-05-21T12:34:47;5.50;;;4.25;;
45466;SDS011;31212;49.734;8.490;2023-05-21T12:37:15;10.52;;;5.30;;
45466;SDS011;31212;49.734;8.490;2023-05-21T12:39:45;7.22;;;4.85;;
45466;SDS011;31212;49.734;8.490;2023-05-21T12:42:14;7.03;;;4.60;;
45466;SDS011;31212;49.734;8.490;2023-05-21T12:44:42;8.98;;;4.55;;
45466;SDS011;31212;49.734;8.490;2023-05-21T12:47:10;7.53;;;4.65;;
45466;SDS011;31212;49.734;8.490;2023-05-21T12:49:38;6.13;;;4.18;;
45466;SDS011;31212;49.734;8.490;2023-05-21T12:52:14;8.15;;;4.47;;
45466;SDS011;31212;49.734;8.490;2023-05-21T12:54:44;6.85;;;4.88;;
45466;SDS011;31212;49.734;8.490;2023-05-21T12:57:16;7.40;;;4.25;;
45466;SDS011;31212;49.734;8.490;2023-05-21T12:59:45;6.75;;;4.78;;
45466;SDS011;31212;49.734;8.490;2023-05-21T13:02:22;6.00;;;4.32;;
45466;SDS011;31212;49.734;8.490;2023-05-21T13:04:53;8.48;;;4.35;;
45466;SDS011;31212;49.734;8.490;2023-05-21T13:07:21;7.05;;;4.45;;
45466;SDS011;31212;49.734;8.490;2023-05-21T13:09:48;9.63;;;4.55;;
45466;SDS011;31212;49.734;8.490;2023-05-21T13:12:18;5.85;;;3.97;;
45466;SDS011;31212;49.734;8.490;2023-05-21T13:14:46;7.70;;;4.70;;
45466;SDS011;31212;49.734;8.490;2023-05-21T13:17:13;8.95;;;4.95;;
45466;SDS011;31212;49.734;8.490;2023-05-21T13:19:40;6.68;;;4.00;;
45466;SDS011;31212;49.734;8.490;2023-05-21T13:22:06;6.25;;;4.18;;
45466;SDS011;31212;49.734;8.490;2023-05-21T13:24:34;8.40;;;4.45;;
45466;SDS011;31212;49.734;8.490;2023-05-21T13:27:01;5.53;;;4.60;;
45466;SDS011;31212;49.734;8.490;2023-05-21T13:29:29;8.00;;;4.60;;
45466;SDS011;31212;49.734;8.490;2023-05-21T13:31:56;6.13;;;4.68;;
45466;SDS011;31212;49.734;8.490;2023-05-21T13:34:22;7.28;;;4.60;;
45466;SDS011;31212;49.734;8.490;2023-05-21T13:36:49;6.82;;;3.70;;
45466;SDS011;31212;49.734;8.490;2023-05-21T13:39:16;9.40;;;5.80;;
45466;SDS011;31212;49.734;8.490;2023-05-21T13:41:42;6.40;;;4.53;;
45466;SDS011;31212;49.734;8.490;2023-05-21T13:44:09;5.50;;;3.97;;
45466;SDS011;31212;49.734;8.490;2023-05-21T13:46:37;7.45;;;5.07;;
45466;SDS011;31212;49.734;8.490;2023-05-21T13:49:04;5.70;;;3.95;;
45466;SDS011;31212;49.734;8.490;2023-05-21T13:51:32;7.50;;;4.72;;
45466;SDS011;31212;49.734;8.490;2023-05-21T13:53:58;7.80;;;4.05;;
45466;SDS011;31212;49.734;8.490;2023-05-21T13:56:25;8.20;;;4.50;;
45466;SDS011;31212;49.734;8.490;2023-05-21T13:58:51;7.50;;;4.20;;
45466;SDS011;31212;49.734;8.490;2023-05-21T14:01:18;12.82;;;4.65;;
45466;SDS011;31212;49.734;8.490;2023-05-21T14:03:46;7.20;;;4.60;;
45466;SDS011;31212;49.734;8.490;2023-05-21T14:06:12;7.95;;;5.10;;
45466;SDS011;31212;49.734;8.490;2023-05-21T14:08:39;9.02;;;4.63;;
45466;SDS011;31212;49.734;8.490;2023-05-21T14:11:06;6.53;;;4.78;;
45466;SDS011;31212;49.734;8.490;2023-05-21T14:13:32;6.50;;;3.95;;
45466;SDS011;31212;49.734;8.490;2023-05-21T14:15:59;6.43;;;4.20;;
45466;SDS011;31212;49.734;8.490;2023-05-21T14:18:25;5.60;;;3.80;;
45466;SDS011;31212;49.734;8.490;2023-05-21T14:20:53;7.18;;;4.20;;
45466;SDS011;31212;49.734;8.490;2023-05-21T14:23:19;6.03;;;4.13;;
45466;SDS011;31212;49.734;8.490;2023-05-21T14:25:46;6.90;;;4.18;;
45466;SDS011;31212;49.734;8.490;2023-05-21T14:28:13;6.32;;;4.07;;
45466;SDS011;31212;49.734;8.490;2023-05-21T14:30:39;5.80;;;4.03;;
45466;SDS011;31212;49.734;8.490;2023-05-21T14:33:06;5.75;;;4.38;;
45466;SDS011;31212;49.734;8.490;2023-05-21T14:35:32;10.05;;;3.88;;
45466;SDS011;31212;49.734;8.490;2023-05-21T14:38:00;7.10;;;4.50;;
45466;SDS011;31212;49.734;8.490;2023-05-21T14:40:27;8.80;;;4.50;;
45466;SDS011;31212;49.734;8.490;2023-05-21T14:42:53;6.40;;;4.50;;
45466;SDS011;31212;49.734;8.490;2023-05-21T14:45:20;7.15;;;4.07;;
45466;SDS011;31212;49.734;8.490;2023-05-21T14:47:47;7.50;;;3.90;;
45466;SDS011;31212;49.734;8.490;2023-05-21T14:50:14;8.73;;;3.92;;
45466;SDS011;31212;49.734;8.490;2023-05-21T14:52:41;5.30;;;3.53;;
45466;SDS011;31212;49.734;8.490;2023-05-21T14:55:09;5.82;;;3.13;;
45466;SDS011;31212;49.734;8.490;2023-05-21T14:57:37;5.57;;;3.83;;
45466;SDS011;31212;49.734;8.490;2023-05-21T15:00:05;7.63;;;3.88;;